^^
Saratoga-Weather Station Historical Data
Daily Summary for September 22, 2021 Units:  English    Metric   Both
Daily Weekly Monthly Yearly Custom
  High: Low: Average:
Temperature: 71.1 °F 61.9 °F 64.9 °F
Dew Point: 63.7 °F 56.1 °F 60.1 °F
Humidity: 95% 61% 85%
Wind Speed: 13mph 0mph 3.4mph
Wind Gust: 16mph - -
Wind- - West
Pressure: 30.1 in 30 in -
Precipitation: 0.02 in    
Historical Graphs
 
 
Tabular Data for September 22, 2021
Time Temperature Dew Point Pressure Wind Wind Speed Wind Gust Humidity Rainfall Rate (Hourly) solar
00:03 66 °F 63.7 °F 30 in Calm   3 mph 92% 0 in 0 W/m2
00:08 65.8 °F 63.5 °F 30 in Calm   4 mph 92% 0 in 0 W/m2
00:13 65.8 °F 63.1 °F 30 in Calm   1 mph 91% 0 in 0 W/m2
00:18 65.7 °F 63 °F 30 in East 2 mph 5 mph 91% 0 in 0 W/m2
00:23 65.7 °F 63 °F 30 in East 2.9 mph 3 mph 91% 0 in 0 W/m2
00:28 65.5 °F 62.8 °F 30 in East 2.9 mph 3 mph 91% 0 in 0 W/m2
00:33 65.3 °F 62.6 °F 30 in WSW 0.9 mph 2 mph 91% 0 in 0 W/m2
00:38 65.1 °F 62.4 °F 30 in South 0.9 mph 3 mph 91% 0 in 0 W/m2
00:43 64.9 °F 62.2 °F 30 in WNW 2.9 mph 4 mph 91% 0 in 0 W/m2
00:48 64.9 °F 62.2 °F 30 in Calm   6 mph 91% 0 in 0 W/m2
00:53 64.8 °F 62.1 °F 30 in Calm   2 mph 91% 0 in 0 W/m2
00:58 64.6 °F 61.9 °F 30 in Calm   6 mph 91% 0 in 0 W/m2
01:03 64.6 °F 61.9 °F 30 in NNW 2 mph 2 mph 91% 0 in 0 W/m2
01:08 64.6 °F 61.9 °F 30 in Calm   2 mph 91% 0 in 0 W/m2
01:13 64.6 °F 61.9 °F 30 in NW 0.9 mph 3 mph 91% 0 in 0 W/m2
01:18 64.6 °F 61.9 °F 30 in Calm   7 mph 91% 0 in 0 W/m2
01:23 64.6 °F 61.9 °F 30 in WSW 0.9 mph 7 mph 91% 0 in 0 W/m2
01:28 64.4 °F 61.7 °F 30 in Calm   2 mph 91% 0 in 0 W/m2
01:33 64.2 °F 61.9 °F 30 in West 0.9 mph 7 mph 92% 0 in 0 W/m2
01:38 64.2 °F 61.5 °F 30 in Calm   2 mph 91% 0 in 0 W/m2
01:43 64 °F 61.7 °F 30 in West 0.9 mph 3 mph 92% 0 in 0 W/m2
01:48 64 °F 61.7 °F 30 in SW 0.9 mph 3 mph 92% 0 in 0 W/m2
01:53 63.9 °F 61.5 °F 30 in NW 0.9 mph 3 mph 92% 0 in 0 W/m2
01:58 63.9 °F 61.9 °F 30 in West 2.9 mph 6 mph 93% 0 in 0 W/m2
02:03 63.9 °F 61.9 °F 30 in WNW 2.9 mph 4 mph 93% 0 in 0 W/m2
02:08 63.9 °F 61.9 °F 30 in West 4 mph 5 mph 93% 0 in 0 W/m2
02:13 63.9 °F 61.9 °F 30 in WNW 0.9 mph 4 mph 93% 0 in 0 W/m2
02:18 63.9 °F 61.9 °F 30 in WSW 2.9 mph 8 mph 93% 0 in 0 W/m2
02:23 63.9 °F 61.9 °F 30 in WNW 2 mph 3 mph 93% 0 in 0 W/m2
02:28 63.7 °F 61.7 °F 30 in Calm   7 mph 93% 0 in 0 W/m2
02:33 63.7 °F 61.7 °F 30 in WSW 2 mph 6 mph 93% 0 in 0 W/m2
02:38 63.9 °F 61.9 °F 30 in West 0.9 mph 4 mph 93% 0 in 0 W/m2
02:43 63.9 °F 61.9 °F 30 in SW 2 mph 5 mph 93% 0 in 0 W/m2
02:48 63.9 °F 61.9 °F 30 in West 0.9 mph 4 mph 93% 0 in 0 W/m2
02:53 63.9 °F 61.9 °F 30 in SW 2 mph 6 mph 93% 0 in 0 W/m2
02:58 63.9 °F 62.1 °F 30 in WSW 2 mph 8 mph 94% 0 in 0 W/m2
03:03 63.9 °F 62.1 °F 30 in WSW 2 mph 7 mph 94% 0 in 0 W/m2
03:08 63.9 °F 62.1 °F 30 in West 2 mph 8 mph 94% 0 in 0 W/m2
03:13 63.9 °F 62.1 °F 30 in WNW 4.9 mph 7 mph 94% 0 in 0 W/m2
03:18 63.9 °F 62.1 °F 30 in WSW 4 mph 9 mph 94% 0 in 0 W/m2
03:23 63.9 °F 62.1 °F 30 in West 2.9 mph 7 mph 94% 0 in 0 W/m2
03:28 63.9 °F 62.1 °F 30 in West 2.9 mph 7 mph 94% 0 in 0 W/m2
03:34 63.9 °F 62.1 °F 30 in WSW 2.9 mph 4 mph 94% 0 in 0 W/m2
03:39 63.9 °F 62.1 °F 30 in WNW 2.9 mph 4 mph 94% 0 in 0 W/m2
03:44 63.9 °F 62.1 °F 30 in WNW 2 mph 2 mph 94% 0 in 0 W/m2
03:49 63.9 °F 62.1 °F 30 in West 0.9 mph 2 mph 94% 0 in 0 W/m2
03:54 63.9 °F 62.1 °F 30 in Calm     94% 0 in 0 W/m2
03:59 63.7 °F 61.9 °F 30 in Calm   1 mph 94% 0 in 0 W/m2
04:04 63.5 °F 61.7 °F 30 in Calm     94% 0 in 0 W/m2
04:09 63.3 °F 61.5 °F 30 in West 0.9 mph 3 mph 94% 0 in 0 W/m2
04:14 63.3 °F 61.5 °F 30 in WSW 2 mph 4 mph 94% 0 in 0 W/m2
04:19 63.3 °F 61.9 °F 30 in West 2.9 mph 5 mph 95% 0 in 0 W/m2
04:24 63.5 °F 62.1 °F 30 in SW 2.9 mph 6 mph 95% 0 in 0 W/m2
04:29 63.7 °F 62.2 °F 30 in WNW 4 mph 5 mph 95% 0 in 0 W/m2
04:34 63.7 °F 61.9 °F 30 in WNW 2.9 mph 4 mph 94% 0 in 0 W/m2
04:39 63.7 °F 61.9 °F 30 in WSW 0.9 mph 4 mph 94% 0 in 0 W/m2
04:44 63.7 °F 61.9 °F 30 in West 2 mph 4 mph 94% 0 in 0 W/m2
04:49 63.5 °F 61.7 °F 30 in WSW 2.9 mph 4 mph 94% 0 in 0 W/m2
04:54 63.5 °F 61.7 °F 30 in WSW 0.9 mph 4 mph 94% 0 in 0 W/m2
04:59 63.5 °F 61.7 °F 30 in West 2 mph 4 mph 94% 0 in 0 W/m2
05:04 63.7 °F 61.9 °F 30 in West 6 mph 6 mph 94% 0 in 0 W/m2
05:09 63.5 °F 61.7 °F 30 in Calm   5 mph 94% 0 in 0 W/m2
05:14 63.5 °F 61.7 °F 30 in West 2 mph 6 mph 94% 0 in 0 W/m2
05:19 63.3 °F 61.5 °F 30 in WSW 2 mph 2 mph 94% 0 in 0 W/m2
05:24 63.3 °F 61.5 °F 30 in West 2 mph 3 mph 94% 0 in 0 W/m2
05:29 63.3 °F 61.5 °F 30 in WSW 2.9 mph 4 mph 94% 0 in 0 W/m2
05:34 63.1 °F 61.3 °F 30 in West 4 mph 6 mph 94% 0 in 0 W/m2
05:39 63.3 °F 61.5 °F 30 in WSW 2 mph 4 mph 94% 0 in 0 W/m2
05:44 63.3 °F 61.5 °F 30 in WNW 6 mph 6 mph 94% 0 in 0 W/m2
05:49 63.3 °F 61.5 °F 30 in West 0.9 mph 4 mph 94% 0 in 0 W/m2
05:54 63.3 °F 61.5 °F 30 in WNW 2 mph 4 mph 94% 0 in 0 W/m2
05:59 63.3 °F 61.5 °F 30 in WNW 0.9 mph 3 mph 94% 0 in 0 W/m2
06:04 63.3 °F 61.5 °F 30 in WSW 2 mph 3 mph 94% 0 in 0 W/m2
06:09 63.3 °F 61.5 °F 30 in WNW 4 mph 6 mph 94% 0 in 0 W/m2
06:14 63.3 °F 61.5 °F 30 in West 0.9 mph 2 mph 94% 0 in 0 W/m2
06:19 63.3 °F 61.5 °F 30 in West 6 mph 7 mph 94% 0 in 0 W/m2
06:24 63.3 °F 61.5 °F 30 in WNW 0.9 mph 3 mph 94% 0 in 0 W/m2
06:29 63.3 °F 61.5 °F 30 in WNW 2 mph 3 mph 94% 0 in 0 W/m2
06:34 63.3 °F 61.5 °F 30 in West 0.9 mph 2 mph 94% 0 in 0 W/m2
06:39 63.3 °F 61.5 °F 30 in WNW 4 mph 4 mph 94% 0 in 0 W/m2
06:44 63.3 °F 61.5 °F 30 in WNW 4 mph 4 mph 94% 0 in 5 W/m2
06:49 63.3 °F 61.5 °F 30 in West 0.9 mph 5 mph 94% 0 in 7 W/m2
06:54 63.3 °F 61.5 °F 30 in West 2.9 mph 4 mph 94% 0 in 7 W/m2
06:59 63.3 °F 61.5 °F 30 in WNW 0.9 mph 2 mph 94% 0 in 11 W/m2
07:04 63.1 °F 61.3 °F 30 in West 2.9 mph 3 mph 94% 0 in 11 W/m2
07:09 63.1 °F 61.2 °F 30 in WNW 0.9 mph 5 mph 93% 0 in 9 W/m2
07:14 63.1 °F 61.3 °F 30 in NW 0.9 mph 4 mph 94% 0 in 11 W/m2
07:19 63.1 °F 61.3 °F 30 in Calm     94% 0 in 12 W/m2
07:24 63.3 °F 61.5 °F 30 in Calm     94% 0 in 11 W/m2
07:29 63.3 °F 61.5 °F 30 in Calm     94% 0 in 16 W/m2
07:34 63.3 °F 61.5 °F 30 in Calm   1 mph 94% 0 in 30 W/m2
07:39 63.3 °F 61.5 °F 30 in Calm   3 mph 94% 0 in 19 W/m2
07:44 63.3 °F 61.5 °F 30 in Calm   3 mph 94% 0 in 18 W/m2
07:49 63.3 °F 61.5 °F 30 in Calm   1 mph 94% 0 in 14 W/m2
07:54 63.3 °F 61.5 °F 30 in Calm   2 mph 94% 0 in 35 W/m2
07:59 63.5 °F 61.7 °F 30 in Calm   1 mph 94% 0 in 28 W/m2
08:04 63.7 °F 61.9 °F 30 in Calm   2 mph 94% 0 in 33 W/m2
08:09 63.7 °F 61.7 °F 30 in WSW 0.9 mph 3 mph 93% 0 in 25 W/m2
08:14 63.7 °F 61.7 °F 30 in Calm   4 mph 93% 0 in 35 W/m2
08:19 63.9 °F 61.9 °F 30 in Calm     93% 0 in 37 W/m2
08:24 63.9 °F 61.9 °F 30 in Calm   2 mph 93% 0 in 32 W/m2
08:29 63.9 °F 61.9 °F 30 in WNW 0.9 mph 3 mph 93% 0 in 33 W/m2
08:34 63.9 °F 61.9 °F 30 in WNW 4 mph 4 mph 93% 0 in 21 W/m2
08:39 63.9 °F 61.9 °F 30 in NW 2 mph 4 mph 93% 0 in 49 W/m2
08:44 63.9 °F 61.9 °F 30 in WNW 2.9 mph 3 mph 93% 0 in 33 W/m2
08:49 63.9 °F 61.9 °F 30 in WNW 4.9 mph 6 mph 93% 0 in 19 W/m2
08:54 63.7 °F 61.7 °F 30 in NW 0.9 mph 8 mph 93% 0 in 40 W/m2
08:59 63.7 °F 61.7 °F 30 in SW 4.9 mph 5 mph 93% 0 in 63 W/m2
09:04 63.7 °F 61.7 °F 30 in West 6 mph 8 mph 93% 0 in 65 W/m2
09:09 63.9 °F 61.5 °F 30 in Calm   3 mph 92% 0 in 83 W/m2
09:14 63.9 °F 61.9 °F 30 in SW 4.9 mph 7 mph 93% 0 in 69 W/m2
09:19 63.9 °F 61.5 °F 30 in NW 2 mph 4 mph 92% 0 in 53 W/m2
09:24 63.9 °F 61.5 °F 30 in West 0.9 mph 7 mph 92% 0 in 42 W/m2
09:29 63.9 °F 61.5 °F 30 in North 4 mph 9 mph 92% 0 in 30 W/m2
09:34 63.7 °F 61.3 °F 30 in West 6 mph 6 mph 92% 0.01 in 35 W/m2
09:39 63.5 °F 61.5 °F 30 in WNW 2 mph 2 mph 93% 0.01 in 63 W/m2
09:44 63.5 °F 61.5 °F 30 in West 6.9 mph 7 mph 93% 0.01 in 123 W/m2
09:49 63.5 °F 61.5 °F 30 in NW 2 mph 6 mph 93% 0.01 in 130 W/m2
09:54 63.5 °F 61.5 °F 30 in WNW 4 mph 7 mph 93% 0.01 in 114 W/m2
09:59 63.7 °F 61.7 °F 30 in West 2 mph 6 mph 93% 0.01 in 77 W/m2
10:04 63.7 °F 61.7 °F 30 in WNW 2.9 mph 7 mph 93% 0.01 in 49 W/m2
10:10 63.5 °F 61.5 °F 30 in West 6 mph 6 mph 93% 0.01 in 83 W/m2
10:15 63.7 °F 61.7 °F 30 in WNW 2 mph 7 mph 93% 0.01 in 67 W/m2
10:20 63.5 °F 61.2 °F 30 in WNW 0.9 mph 5 mph 92% 0.01 in 53 W/m2
10:25 63.7 °F 61.3 °F 30 in North 2.9 mph 3 mph 92% 0.01 in 79 W/m2
10:30 63.7 °F 61.3 °F 30 in West 2 mph 4 mph 92% 0.01 in 91 W/m2
10:35 63.7 °F 61.3 °F 30 in WNW 4.9 mph 5 mph 92% 0 in 109 W/m2
10:40 63.9 °F 61.5 °F 30 in West 2.9 mph 3 mph 92% 0 in 74 W/m2
10:45 63.9 °F 61.5 °F 30 in West 5 mph 5 mph 92% 0 in 53 W/m2
10:50 63.9 °F 61.5 °F 30 in West 0.9 mph 2 mph 92% 0 in 54 W/m2
10:55 63.9 °F 61.5 °F 30 in NW 0.9 mph 4 mph 92% 0 in 42 W/m2
11:00 63.9 °F 61.5 °F 30 in Calm   2 mph 92% 0 in 93 W/m2
11:05 64 °F 61.7 °F 30 in WNW 0.9 mph 2 mph 92% 0 in 127 W/m2
11:10 64 °F 61.7 °F 30 in NW 2.9 mph 3 mph 92% 0 in 77 W/m2
11:15 64 °F 61.7 °F 30 in WNW 0.9 mph 2 mph 92% 0 in 90 W/m2
11:20 64.2 °F 61.5 °F 30 in West 2 mph 4 mph 91% 0 in 63 W/m2
11:25 64.2 °F 61.5 °F 30 in WNW 2 mph 3 mph 91% 0 in 44 W/m2
11:30 64.2 °F 61.5 °F 30 in WSW 2 mph 4 mph 91% 0 in 69 W/m2
11:35 64.2 °F 61.2 °F 30 in West 2 mph 4 mph 90% 0 in 95 W/m2
11:40 64.2 °F 61.2 °F 30 in West 2.9 mph 4 mph 90% 0 in 102 W/m2
11:45 64.4 °F 61.3 °F 30 in NW 4 mph 6 mph 90% 0 in 229 W/m2
11:50 64.4 °F 61.3 °F 30 in WSW 4.9 mph 8 mph 90% 0 in 197 W/m2
11:55 64.4 °F 61.3 °F 30 in WSW 4 mph 6 mph 90% 0.01 in 248 W/m2
12:00 64.2 °F 61 °F 30 in WNW 8.1 mph 11 mph 89% 0.01 in 278 W/m2
12:05 64.2 °F 61.2 °F 30 in WNW 2.9 mph 4 mph 90% 0.01 in 336 W/m2
12:10 64.4 °F 61.3 °F 30 in West 6 mph 9 mph 90% 0.01 in 425 W/m2
12:15 64.8 °F 61.5 °F 30 in WNW 8.1 mph 11 mph 89% 0.01 in 497 W/m2
12:20 64.8 °F 60.8 °F 30 in West 6.9 mph 10 mph 87% 0.01 in 417 W/m2
12:25 64.9 °F 61.3 °F 30 in WNW 6.9 mph 9 mph 88% 0.01 in 536 W/m2
12:30 65.5 °F 61.2 °F 30 in WNW 4.9 mph 9 mph 86% 0.01 in 462 W/m2
12:35 65.8 °F 61.5 °F 30 in NW 2.9 mph 9 mph 86% 0.01 in 427 W/m2
12:40 66 °F 61.3 °F 30 in WNW 4.9 mph 9 mph 85% 0.01 in 357 W/m2
12:45 66 °F 61 °F 30 in NNW 2.9 mph 8 mph 84% 0.01 in 411 W/m2
12:50 66.6 °F 61.9 °F 30 in WSW 11 mph 11 mph 85% 0.01 in 1048 W/m2
12:55 66.6 °F 61 °F 30 in WSW 4.9 mph 7 mph 82% 0 in 297 W/m2
13:00 66.9 °F 61.9 °F 30 in West 2 mph 9 mph 84% 0 in 478 W/m2
13:05 67.5 °F 62.1 °F 30 in WNW 2 mph 8 mph 83% 0 in 478 W/m2
13:10 67.6 °F 61.9 °F 30 in WNW 4.9 mph 10 mph 82% 0 in 253 W/m2
13:15 67.3 °F 61.2 °F 30 in Calm   7 mph 81% 0 in 276 W/m2
13:20 67.3 °F 61 °F 30 in WNW 4.9 mph 10 mph 80% 0 in 216 W/m2
13:25 67.3 °F 60.6 °F 30 in WNW 2 mph 5 mph 79% 0 in 216 W/m2
13:30 67.3 °F 60.6 °F 30 in WNW 2.9 mph 10 mph 79% 0 in 269 W/m2
13:35 67.5 °F 61.2 °F 30 in NW 2.9 mph 6 mph 80% 0 in 223 W/m2
13:40 67.6 °F 61.2 °F 30 in West 2.9 mph 7 mph 80% 0 in 329 W/m2
13:45 67.6 °F 61.2 °F 30 in WNW 2.9 mph 5 mph 80% 0 in 279 W/m2
13:50 67.8 °F 61 °F 30 in West 2 mph 11 mph 79% 0 in 227 W/m2
13:55 67.8 °F 61 °F 30 in WSW 4 mph 7 mph 79% 0 in 272 W/m2
14:00 67.6 °F 61 °F 30 in WSW 8.9 mph 10 mph 79% 0 in 295 W/m2
14:05 67.6 °F 60.6 °F 30 in West 12.1 mph 12 mph 78% 0 in 311 W/m2
14:10 67.5 °F 60.4 °F 30 in SW 6 mph 9 mph 78% 0 in 262 W/m2
14:15 67.3 °F 59.5 °F 30 in West 2.9 mph 7 mph 76% 0 in 364 W/m2
14:20 67.5 °F 59.2 °F 30 in West 2 mph 9 mph 75% 0 in 376 W/m2
14:25 67.8 °F 58.8 °F 30 in WNW 2.9 mph 10 mph 73% 0 in 264 W/m2
14:30 67.6 °F 57.6 °F 30 in WSW 8.1 mph 9 mph 70% 0 in 239 W/m2
14:35 68.2 °F 58.5 °F 30 in WSW 2.9 mph 9 mph 71% 0 in 411 W/m2
14:40 68.4 °F 57.4 °F 30 in WNW 4 mph 12 mph 68% 0 in 404 W/m2
14:45 68.7 °F 57.7 °F 30 in WNW 6.9 mph 8 mph 68% 0 in 457 W/m2
14:50 69.3 °F 57.9 °F 30 in West 6.9 mph 11 mph 67% 0 in 1109 W/m2
14:55 70 °F 58.5 °F 30 in West 8.1 mph 11 mph 67% 0 in 469 W/m2
15:00 69.6 °F 57.7 °F 30 in West 11 mph 11 mph 66% 0 in 408 W/m2
15:05 69.8 °F 58.3 °F 30 in WSW 4 mph 7 mph 67% 0 in 346 W/m2
15:10 69.6 °F 57.4 °F 30 in West 4 mph 12 mph 65% 0 in 223 W/m2
15:15 69.1 °F 57.2 °F 30 in West 8.1 mph 12 mph 66% 0 in 287 W/m2
15:20 68.9 °F 57.6 °F 30 in WNW 4.9 mph 10 mph 67% 0 in 865 W/m2
15:25 69.4 °F 57.2 °F 30 in West 8.1 mph 11 mph 65% 0 in 856 W/m2
15:30 69.8 °F 57 °F 30 in WSW 6.9 mph 11 mph 64% 0 in 343 W/m2
15:35 69.8 °F 56.1 °F 30 in NW 4.9 mph 12 mph 62% 0 in 814 W/m2
15:40 69.6 °F 56.8 °F 30 in WNW 2.9 mph 7 mph 64% 0 in 396 W/m2
15:45 69.6 °F 56.8 °F 30 in WNW 8.9 mph 14 mph 64% 0 in 253 W/m2
15:50 69.6 °F 56.5 °F 30 in NW 4.9 mph 8 mph 63% 0 in 701 W/m2
15:55 70 °F 56.8 °F 30 in West 2.9 mph 15 mph 63% 0 in 733 W/m2
16:00 70 °F 56.3 °F 30 in NW 6.9 mph 10 mph 62% 0 in 724 W/m2
16:05 70 °F 57.2 °F 30 in WSW 6.9 mph 12 mph 64% 0 in 726 W/m2
16:11 70.5 °F 57.4 °F 30 in WSW 4.9 mph 11 mph 63% 0 in 684 W/m2
16:16 70.5 °F 57.4 °F 30 in NNW 8.1 mph 11 mph 63% 0 in 666 W/m2
16:21 70.2 °F 57.4 °F 30 in WSW 2.9 mph 10 mph 64% 0 in 673 W/m2
16:26 69.8 °F 57.6 °F 30 in WNW 2.9 mph 7 mph 65% 0 in 125 W/m2
16:31 70 °F 57.7 °F 30 in West 8.9 mph 12 mph 65% 0 in 715 W/m2
16:36 70.2 °F 57 °F 30 in West 6 mph 13 mph 63% 0 in 680 W/m2
16:41 70 °F 57.2 °F 30 in WSW 2.9 mph 8 mph 64% 0 in 714 W/m2
16:46 70 °F 57.7 °F 30 in West 6.9 mph 7 mph 65% 0 in 253 W/m2
16:51 70.2 °F 57.4 °F 30 in NW 11 mph 11 mph 64% 0 in 485 W/m2
16:56 70.3 °F 57.6 °F 30 in WSW 6.9 mph 10 mph 64% 0 in 406 W/m2
17:01 70.7 °F 57.6 °F 30 in NW 2.9 mph 10 mph 63% 0 in 738 W/m2
17:06 71.1 °F 57.4 °F 30 in West 4 mph 16 mph 62% 0 in 649 W/m2
17:11 71.1 °F 56.8 °F 30 in NW 12.1 mph 12 mph 61% 0 in 636 W/m2
17:16 71.1 °F 57.4 °F 30 in WNW 4.9 mph 8 mph 62% 0 in 276 W/m2
17:21 70.7 °F 57 °F 30 in WNW 4 mph 10 mph 62% 0 in 151 W/m2
17:26 70.3 °F 57.2 °F 30 in NW 4.9 mph 9 mph 63% 0 in 116 W/m2
17:31 69.6 °F 57.4 °F 30 in WSW 4 mph 10 mph 65% 0 in 120 W/m2
17:36 69.3 °F 57 °F 30 in WSW 2 mph 10 mph 65% 0 in 84 W/m2
17:41 69.1 °F 57.2 °F 30 in West 2.9 mph 7 mph 66% 0 in 114 W/m2
17:46 69.1 °F 57.7 °F 30 in NW 4.9 mph 12 mph 67% 0 in 149 W/m2
17:51 68.9 °F 57.6 °F 30 in WNW 8.1 mph 11 mph 67% 0 in 88 W/m2
17:56 68.5 °F 57.6 °F 30 in WNW 6 mph 12 mph 68% 0 in 127 W/m2
18:01 68.4 °F 57.4 °F 30 in WNW 6.9 mph 15 mph 68% 0 in 185 W/m2
18:06 68.2 °F 57.6 °F 30 in WNW 6.9 mph 7 mph 69% 0 in 128 W/m2
18:11 67.8 °F 57.7 °F 30 in West 13 mph 15 mph 70% 0 in 93 W/m2
18:16 67.5 °F 57.7 °F 30 in WNW 13 mph 13 mph 71% 0 in 105 W/m2
18:21 66.9 °F 57.6 °F 30 in WSW 4 mph 10 mph 72% 0 in 127 W/m2
18:26 66.6 °F 58.1 °F 30.1 in West 13 mph 13 mph 74% 0 in 207 W/m2
18:31 66.6 °F 58.8 °F 30.1 in WSW 10.1 mph 13 mph 76% 0 in 457 W/m2
18:36 66.6 °F 58.5 °F 30 in WNW 4 mph 15 mph 75% 0 in 415 W/m2
18:41 66.7 °F 58.6 °F 30.1 in SSW 4 mph 11 mph 75% 0 in 332 W/m2
18:46 66.7 °F 59 °F 30.1 in West 6 mph 13 mph 76% 0 in 272 W/m2
18:51 66.6 °F 59.2 °F 30.1 in West 4 mph 6 mph 77% 0 in 239 W/m2
18:56 66.4 °F 59 °F 30.1 in WNW 8.1 mph 12 mph 77% 0 in 230 W/m2
19:01 66.4 °F 59 °F 30.1 in SW 2.9 mph 6 mph 77% 0 in 214 W/m2
19:06 66.2 °F 58.5 °F 30.1 in West 6.9 mph 11 mph 76% 0 in 197 W/m2
19:11 66 °F 58.6 °F 30.1 in WNW 8.1 mph 10 mph 77% 0 in 130 W/m2
19:16 65.7 °F 58.6 °F 30.1 in West 8.9 mph 11 mph 78% 0 in 30 W/m2
19:21 65.1 °F 58.5 °F 30.1 in North 4 mph 8 mph 79% 0 in 35 W/m2
19:26 64.9 °F 58.6 °F 30.1 in West 4 mph 10 mph 80% 0 in 70 W/m2
19:31 64.8 °F 58.8 °F 30.1 in WNW 4.9 mph 9 mph 81% 0 in 97 W/m2
19:36 64.6 °F 59 °F 30.1 in West 4 mph 7 mph 82% 0 in 42 W/m2
19:41 64.6 °F 59 °F 30.1 in WNW 4.9 mph 8 mph 82% 0 in 37 W/m2
19:46 64.4 °F 58.8 °F 30.1 in WSW 6 mph 8 mph 82% 0 in 40 W/m2
19:51 64.2 °F 59 °F 30.1 in NW 4 mph 12 mph 83% 0 in 39 W/m2
19:56 64.2 °F 59 °F 30.1 in WNW 8.1 mph 8 mph 83% 0 in 39 W/m2
20:01 64.2 °F 59 °F 30.1 in WNW 11 mph 12 mph 83% 0 in 40 W/m2
20:06 64.6 °F 59 °F 30.1 in WNW 6 mph 12 mph 82% 0 in 42 W/m2
20:11 64.6 °F 59 °F 30.1 in West 6.9 mph 12 mph 82% 0 in 32 W/m2
20:16 64.4 °F 58.8 °F 30.1 in WNW 6 mph 14 mph 82% 0 in 23 W/m2
20:21 64.4 °F 58.8 °F 30.1 in West 6.9 mph 9 mph 82% 0 in 16 W/m2
20:26 64 °F 58.5 °F 30.1 in NNW 4 mph 11 mph 82% 0 in 9 W/m2
20:31 64 °F 58.5 °F 30.1 in NNE 8.1 mph 10 mph 82% 0 in 5 W/m2
20:36 63.9 °F 58.3 °F 30.1 in West 4 mph 10 mph 82% 0 in 0 W/m2
20:41 63.7 °F 57.7 °F 30.1 in West 8.9 mph 11 mph 81% 0 in 0 W/m2
20:46 63.5 °F 57.9 °F 30.1 in WNW 2.9 mph 11 mph 82% 0 in 0 W/m2
20:51 63.3 °F 57.7 °F 30.1 in WSW 4 mph 8 mph 82% 0 in 0 W/m2
20:56 63.3 °F 57.7 °F 30.1 in West 2.9 mph 9 mph 82% 0 in 0 W/m2
21:01 63.3 °F 58.1 °F 30.1 in West 4 mph 8 mph 83% 0 in 0 W/m2
21:06 63.3 °F 57.7 °F 30.1 in WNW 4.9 mph 9 mph 82% 0 in 0 W/m2
21:11 63.3 °F 58.1 °F 30.1 in WSW 4.9 mph 8 mph 83% 0 in 0 W/m2
21:16 63.3 °F 58.1 °F 30.1 in NW 2.9 mph 10 mph 83% 0 in 0 W/m2
21:21 63.3 °F 58.1 °F 30.1 in WSW 4 mph 8 mph 83% 0 in 0 W/m2
21:26 63.1 °F 57.9 °F 30.1 in West 2 mph 8 mph 83% 0 in 0 W/m2
21:31 63.1 °F 57.9 °F 30.1 in SW 2 mph 8 mph 83% 0 in 0 W/m2
21:36 63.1 °F 57.9 °F 30.1 in West 2.9 mph 12 mph 83% 0 in 0 W/m2
21:41 63.1 °F 57.9 °F 30.1 in West 2 mph 8 mph 83% 0 in 0 W/m2
21:46 63.1 °F 57.9 °F 30.1 in NW 6.9 mph 9 mph 83% 0 in 0 W/m2
21:51 63.1 °F 57.9 °F 30.1 in WNW 0.9 mph 6 mph 83% 0 in 0 W/m2
21:56 63.1 °F 57.9 °F 30.1 in WSW 0.9 mph 8 mph 83% 0 in 0 W/m2
22:01 63.1 °F 57.9 °F 30.1 in West 2 mph 3 mph 83% 0 in 0 W/m2
22:06 63 °F 58.1 °F 30.1 in Calm   5 mph 84% 0 in 0 W/m2
22:11 63 °F 58.1 °F 30.1 in WSW 0.9 mph 3 mph 84% 0 in 0 W/m2
22:16 62.8 °F 57.9 °F 30.1 in West 2.9 mph 4 mph 84% 0 in 0 W/m2
22:21 62.8 °F 57.9 °F 30.1 in West 2.9 mph 5 mph 84% 0 in 0 W/m2
22:26 62.6 °F 57.7 °F 30.1 in WSW 2.9 mph 4 mph 84% 0 in 0 W/m2
22:31 62.4 °F 57.9 °F 30.1 in West 4 mph 4 mph 85% 0 in 0 W/m2
22:36 62.2 °F 57.7 °F 30.1 in West 2.9 mph 3 mph 85% 0 in 0 W/m2
22:41 62.2 °F 57.7 °F 30.1 in Calm   2 mph 85% 0 in 0 W/m2
22:46 62.1 °F 57.7 °F 30.1 in WSW 4 mph 6 mph 86% 0 in 0 W/m2
22:51 62.1 °F 57.7 °F 30.1 in WSW 0.9 mph 3 mph 86% 0 in 0 W/m2
22:56 61.9 °F 57.6 °F 30.1 in WSW 0.9 mph 4 mph 86% 0 in 0 W/m2
23:01 61.9 °F 57.9 °F 30.1 in West 2 mph 7 mph 87% 0 in 0 W/m2
23:06 62.1 °F 58.1 °F 30.1 in West 2.9 mph 6 mph 87% 0 in 0 W/m2
23:11 62.1 °F 58.1 °F 30.1 in West 2.9 mph 7 mph 87% 0 in 0 W/m2
23:16 62.1 °F 58.1 °F 30.1 in NW 0.9 mph 4 mph 87% 0 in 0 W/m2
23:21 61.9 °F 57.9 °F 30.1 in WSW 2.9 mph 9 mph 87% 0 in 0 W/m2
23:26 61.9 °F 57.9 °F 30.1 in WSW 2.9 mph 6 mph 87% 0 in 0 W/m2
23:31 62.1 °F 58.1 °F 30.1 in West 2 mph 9 mph 87% 0 in 0 W/m2
23:36 61.9 °F 57.9 °F 30.1 in WSW 2 mph 4 mph 87% 0 in 0 W/m2
23:41 61.9 °F 57.9 °F 30.1 in West 2.9 mph 5 mph 87% 0 in 0 W/m2
23:46 62.1 °F 58.1 °F 30.1 in Calm   4 mph 87% 0 in 0 W/m2
23:51 62.1 °F 58.1 °F 30.1 in West 2 mph 4 mph 87% 0 in 0 W/m2
23:56 61.9 °F 57.9 °F 30.1 in West 2 mph 4 mph 87% 0 in 0 W/m2
Juneau County Weather
Compliments of Weather Underground - 4 mb